sensor_id;sensor_type;location;lat;lon;timestamp;pressure;altitude;pressure_sealevel;temperature;humidity
47761;BME280;33524;55.434;38.520;2022-12-20T00:01:55;101496.19;;;-4.01;92.79
47761;BME280;33524;55.434;38.520;2022-12-20T00:04:23;101489.28;;;-4.13;92.65
47761;BME280;33524;55.434;38.520;2022-12-20T00:06:51;101493.53;;;-4.16;92.57
47761;BME280;33524;55.434;38.520;2022-12-20T00:09:22;101486.69;;;-4.10;92.50
47761;BME280;33524;55.434;38.520;2022-12-20T00:11:52;101478.16;;;-4.10;92.52
47761;BME280;33524;55.434;38.520;2022-12-20T00:14:20;101467.75;;;-4.29;92.58
47761;BME280;33524;55.434;38.520;2022-12-20T00:16:48;101454.09;;;-4.24;92.35
47761;BME280;33524;55.434;38.520;2022-12-20T00:19:19;101454.91;;;-4.33;92.89
47761;BME280;33524;55.434;38.520;2022-12-20T00:21:50;101449.06;;;-4.03;92.63
47761;BME280;33524;55.434;38.520;2022-12-20T00:24:19;101464.41;;;-4.18;92.52
47761;BME280;33524;55.434;38.520;2022-12-20T00:26:53;101455.75;;;-4.34;92.48
47761;BME280;33524;55.434;38.520;2022-12-20T00:29:21;101482.38;;;-4.23;92.53
47761;BME280;33524;55.434;38.520;2022-12-20T00:31:49;101460.09;;;-4.18;92.94
47761;BME280;33524;55.434;38.520;2022-12-20T00:34:17;101471.16;;;-4.33;92.35
47761;BME280;33524;55.434;38.520;2022-12-20T00:36:45;101469.56;;;-4.12;92.76
47761;BME280;33524;55.434;38.520;2022-12-20T00:39:13;101454.00;;;-4.40;92.62
47761;BME280;33524;55.434;38.520;2022-12-20T00:41:41;101452.28;;;-4.44;92.83
47761;BME280;33524;55.434;38.520;2022-12-20T00:44:09;101441.19;;;-4.40;92.55
47761;BME280;33524;55.434;38.520;2022-12-20T00:46:40;101448.00;;;-4.42;92.49
47761;BME280;33524;55.434;38.520;2022-12-20T00:49:08;101451.41;;;-4.48;92.77
47761;BME280;33524;55.434;38.520;2022-12-20T00:51:37;101449.69;;;-4.46;92.80
47761;BME280;33524;55.434;38.520;2022-12-20T00:54:05;101443.66;;;-4.49;93.00
47761;BME280;33524;55.434;38.520;2022-12-20T00:56:33;101447.31;;;-4.13;93.51
47761;BME280;33524;55.434;38.520;2022-12-20T00:59:01;101457.53;;;-4.26;92.28
47761;BME280;33524;55.434;38.520;2022-12-20T01:01:31;101449.84;;;-4.16;92.21
47761;BME280;33524;55.434;38.520;2022-12-20T01:04:02;101449.84;;;-4.16;92.31
47761;BME280;33524;55.434;38.520;2022-12-20T01:06:31;101441.97;;;-4.50;92.57
47761;BME280;33524;55.434;38.520;2022-12-20T01:09:03;101453.94;;;-4.49;93.07
47761;BME280;33524;55.434;38.520;2022-12-20T01:11:34;101457.44;;;-4.39;92.94
47761;BME280;33524;55.434;38.520;2022-12-20T01:14:12;101443.69;;;-4.48;92.99
47761;BME280;33524;55.434;38.520;2022-12-20T01:16:44;101426.66;;;-4.29;92.27
47761;BME280;33524;55.434;38.520;2022-12-20T01:19:15;101423.06;;;-4.60;92.75
47761;BME280;33524;55.434;38.520;2022-12-20T01:21:44;101414.50;;;-4.62;93.16
47761;BME280;33524;55.434;38.520;2022-12-20T01:24:14;101411.16;;;-4.50;93.00
47761;BME280;33524;55.434;38.520;2022-12-20T01:26:43;101405.03;;;-4.72;92.91
47761;BME280;33524;55.434;38.520;2022-12-20T01:29:12;101401.72;;;-4.53;93.38
47761;BME280;33524;55.434;38.520;2022-12-20T01:31:44;101403.41;;;-4.53;93.07
47761;BME280;33524;55.434;38.520;2022-12-20T01:34:12;101389.81;;;-4.41;92.94
47761;BME280;33524;55.434;38.520;2022-12-20T01:36:40;101388.88;;;-4.53;92.68
47761;BME280;33524;55.434;38.520;2022-12-20T01:39:14;101396.63;;;-4.43;92.94
47761;BME280;33524;55.434;38.520;2022-12-20T01:41:43;101388.94;;;-4.39;92.30
47761;BME280;33524;55.434;38.520;2022-12-20T01:46:47;101400.03;;;-4.44;92.24
47761;BME280;33524;55.434;38.520;2022-12-20T01:52:03;101393.91;;;-4.73;93.00
47761;BME280;33524;55.434;38.520;2022-12-20T01:54:45;101379.31;;;-4.81;93.07
47761;BME280;33524;55.434;38.520;2022-12-20T01:57:28;101400.84;;;-4.56;92.81
47761;BME280;33524;55.434;38.520;2022-12-20T01:59:58;101418.69;;;-4.79;93.35
47761;BME280;33524;55.434;38.520;2022-12-20T02:02:26;101428.19;;;-4.64;93.21
47761;BME280;33524;55.434;38.520;2022-12-20T02:04:55;101425.56;;;-4.71;93.31
47761;BME280;33524;55.434;38.520;2022-12-20T02:07:25;101420.56;;;-4.49;93.36
47761;BME280;33524;55.434;38.520;2022-12-20T02:09:56;101397.28;;;-4.78;92.87
47761;BME280;33524;55.434;38.520;2022-12-20T02:12:33;101369.97;;;-4.69;92.12
47761;BME280;33524;55.434;38.520;2022-12-20T02:17:56;101366.66;;;-4.52;91.47
47761;BME280;33524;55.434;38.520;2022-12-20T02:26:36;101398.91;;;-4.88;92.26
47761;BME280;33524;55.434;38.520;2022-12-20T02:29:20;101388.81;;;-4.63;92.35
47761;BME280;33524;55.434;38.520;2022-12-20T02:32:11;101387.22;;;-4.46;91.39
47761;BME280;33524;55.434;38.520;2022-12-20T02:34:43;101363.19;;;-4.60;91.18
47761;BME280;33524;55.434;38.520;2022-12-20T02:37:11;101393.81;;;-4.82;91.16
47761;BME280;33524;55.434;38.520;2022-12-20T02:39:41;101387.97;;;-4.62;91.56
47761;BME280;33524;55.434;38.520;2022-12-20T02:42:17;101370.94;;;-4.47;90.91
47761;BME280;33524;55.434;38.520;2022-12-20T02:44:53;101380.34;;;-4.49;90.80
47761;BME280;33524;55.434;38.520;2022-12-20T02:48:05;101379.47;;;-4.51;90.34
47761;BME280;33524;55.434;38.520;2022-12-20T02:50:43;101374.19;;;-4.81;91.07
47761;BME280;33524;55.434;38.520;2022-12-20T02:53:13;101376.81;;;-4.71;91.69
47761;BME280;33524;55.434;38.520;2022-12-20T02:55:53;101371.75;;;-4.55;91.32
47761;BME280;33524;55.434;38.520;2022-12-20T02:58:41;101364.97;;;-4.41;90.87
47761;BME280;33524;55.434;38.520;2022-12-20T03:01:26;101371.69;;;-4.68;90.94
47761;BME280;33524;55.434;38.520;2022-12-20T03:03:57;101358.87;;;-4.61;90.53
47761;BME280;33524;55.434;38.520;2022-12-20T03:06:28;101365.84;;;-4.39;91.08
47761;BME280;33524;55.434;38.520;2022-12-20T03:08:57;101362.25;;;-4.72;90.83
47761;BME280;33524;55.434;38.520;2022-12-20T03:11:26;101357.94;;;-4.77;91.00
47761;BME280;33524;55.434;38.520;2022-12-20T03:13:54;101362.25;;;-4.73;91.08
47761;BME280;33524;55.434;38.520;2022-12-20T03:16:25;101362.09;;;-4.95;91.05
47761;BME280;33524;55.434;38.520;2022-12-20T03:18:53;101362.19;;;-4.85;90.96
47761;BME280;33524;55.434;38.520;2022-12-20T03:21:21;101358.72;;;-4.89;90.99
47761;BME280;33524;55.434;38.520;2022-12-20T03:23:49;101368.94;;;-4.92;90.84
47761;BME280;33524;55.434;38.520;2022-12-20T03:26:17;101358.56;;;-5.11;90.45
47761;BME280;33524;55.434;38.520;2022-12-20T03:28:46;101353.22;;;-5.41;90.99
47761;BME280;33524;55.434;38.520;2022-12-20T03:31:14;101339.47;;;-5.48;91.34
47761;BME280;33524;55.434;38.520;2022-12-20T03:33:43;101354.03;;;-5.42;90.83
47761;BME280;33524;55.434;38.520;2022-12-20T03:36:11;101339.41;;;-5.56;91.30
47761;BME280;33524;55.434;38.520;2022-12-20T03:38:40;101338.44;;;-5.67;91.29
47761;BME280;33524;55.434;38.520;2022-12-20T03:41:08;101327.19;;;-5.84;91.19
47761;BME280;33524;55.434;38.520;2022-12-20T03:43:36;101332.91;;;-6.10;91.87
47761;BME280;33524;55.434;38.520;2022-12-20T03:46:04;101310.06;;;-5.90;92.45
47761;BME280;33524;55.434;38.520;2022-12-20T03:48:33;101310.81;;;-6.03;91.89
47761;BME280;33524;55.434;38.520;2022-12-20T03:51:01;101313.03;;;-6.33;92.14
47761;BME280;33524;55.434;38.520;2022-12-20T03:53:29;101305.28;;;-6.39;92.60
47761;BME280;33524;55.434;38.520;2022-12-20T03:56:01;101302.25;;;-6.07;93.92
47761;BME280;33524;55.434;38.520;2022-12-20T03:58:29;101301.03;;;-6.38;92.04
47761;BME280;33524;55.434;38.520;2022-12-20T04:00:57;101303.25;;;-6.67;92.52
47761;BME280;33524;55.434;38.520;2022-12-20T04:03:26;101304.09;;;-6.68;93.19
47761;BME280;33524;55.434;38.520;2022-12-20T04:05:55;101302.28;;;-6.77;93.05
47761;BME280;33524;55.434;38.520;2022-12-20T04:08:23;101298.50;;;-7.04;93.37
47761;BME280;33524;55.434;38.520;2022-12-20T04:10:52;101290.94;;;-6.96;93.64
47761;BME280;33524;55.434;38.520;2022-12-20T04:13:53;101286.66;;;-6.97;94.18
47761;BME280;33524;55.434;38.520;2022-12-20T04:16:26;101278.69;;;-7.19;93.87
47761;BME280;33524;55.434;38.520;2022-12-20T04:18:55;101284.78;;;-7.11;95.00
47761;BME280;33524;55.434;38.520;2022-12-20T04:21:26;101276.00;;;-7.26;94.28
47761;BME280;33524;55.434;38.520;2022-12-20T04:23:55;101277.72;;;-7.27;94.05
47761;BME280;33524;55.434;38.520;2022-12-20T04:26:25;101273.34;;;-6.72;94.14
47761;BME280;33524;55.434;38.520;2022-12-20T04:28:55;101266.81;;;-7.14;93.55
47761;BME280;33524;55.434;38.520;2022-12-20T04:31:23;101263.19;;;-7.31;93.88
47761;BME280;33524;55.434;38.520;2022-12-20T04:33:52;101264.44;;;-6.30;96.77
47761;BME280;33524;55.434;38.520;2022-12-20T04:36:23;101256.12;;;-6.07;93.73
47761;BME280;33524;55.434;38.520;2022-12-20T04:38:53;101252.22;;;-6.57;91.95
47761;BME280;33524;55.434;38.520;2022-12-20T04:41:21;101259.03;;;-6.56;93.47
47761;BME280;33524;55.434;38.520;2022-12-20T04:43:52;101255.41;;;-6.75;94.51
47761;BME280;33524;55.434;38.520;2022-12-20T04:46:22;101255.81;;;-7.08;93.84
47761;BME280;33524;55.434;38.520;2022-12-20T04:48:51;101248.53;;;-6.79;95.15
47761;BME280;33524;55.434;38.520;2022-12-20T04:51:27;101260.28;;;-6.93;93.78
47761;BME280;33524;55.434;38.520;2022-12-20T04:53:55;101253.28;;;-7.06;94.14
47761;BME280;33524;55.434;38.520;2022-12-20T04:56:26;101245.25;;;-6.68;93.48
47761;BME280;33524;55.434;38.520;2022-12-20T04:58:56;101248.34;;;-6.94;92.98
47761;BME280;33524;55.434;38.520;2022-12-20T05:01:26;101244.25;;;-6.78;94.43
47761;BME280;33524;55.434;38.520;2022-12-20T05:03:54;101243.66;;;-5.64;97.14
47761;BME280;33524;55.434;38.520;2022-12-20T05:06:25;101243.69;;;-6.57;91.61
47761;BME280;33524;55.434;38.520;2022-12-20T05:08:53;101227.91;;;-6.91;92.68
47761;BME280;33524;55.434;38.520;2022-12-20T05:11:22;101248.22;;;-7.03;92.79
47761;BME280;33524;55.434;38.520;2022-12-20T05:13:50;101251.44;;;-7.17;92.90
47761;BME280;33524;55.434;38.520;2022-12-20T05:16:19;101249.78;;;-6.43;95.91
47761;BME280;33524;55.434;38.520;2022-12-20T05:18:48;101254.19;;;-7.01;92.25
47761;BME280;33524;55.434;38.520;2022-12-20T05:21:17;101248.50;;;-6.80;92.85
47761;BME280;33524;55.434;38.520;2022-12-20T05:24:05;101243.16;;;-7.00;91.66
47761;BME280;33524;55.434;38.520;2022-12-20T05:26:52;101238.59;;;-7.23;92.41
47761;BME280;33524;55.434;38.520;2022-12-20T05:29:20;101244.34;;;-7.36;92.93
47761;BME280;33524;55.434;38.520;2022-12-20T05:31:48;101239.50;;;-7.18;94.01
47761;BME280;33524;55.434;38.520;2022-12-20T05:34:17;101230.84;;;-7.29;93.94
47761;BME280;33524;55.434;38.520;2022-12-20T05:36:46;101231.34;;;-7.52;92.55
47761;BME280;33524;55.434;38.520;2022-12-20T05:39:17;101211.56;;;-7.65;92.63
47761;BME280;33524;55.434;38.520;2022-12-20T05:41:47;101227.13;;;-7.49;92.36
47761;BME280;33524;55.434;38.520;2022-12-20T05:44:15;101216.78;;;-6.96;93.93
47761;BME280;33524;55.434;38.520;2022-12-20T05:46:46;101216.87;;;-6.87;91.20
47761;BME280;33524;55.434;38.520;2022-12-20T05:49:15;101213.66;;;-5.80;93.66
47761;BME280;33524;55.434;38.520;2022-12-20T05:51:44;101224.88;;;-6.58;90.49
47761;BME280;33524;55.434;38.520;2022-12-20T05:54:15;101214.00;;;-7.15;89.67
47761;BME280;33524;55.434;38.520;2022-12-20T05:56:43;101209.09;;;-6.96;89.90
47761;BME280;33524;55.434;38.520;2022-12-20T05:59:14;101205.16;;;-6.70;94.14
47761;BME280;33524;55.434;38.520;2022-12-20T06:01:45;101197.19;;;-6.13;95.95
47761;BME280;33524;55.434;38.520;2022-12-20T06:04:14;101199.25;;;-6.65;89.44
47761;BME280;33524;55.434;38.520;2022-12-20T06:06:44;101187.94;;;-5.93;93.55
47761;BME280;33524;55.434;38.520;2022-12-20T06:09:14;101190.72;;;-6.63;91.29
47761;BME280;33524;55.434;38.520;2022-12-20T06:11:43;101190.44;;;-6.87;92.38
47761;BME280;33524;55.434;38.520;2022-12-20T06:14:12;101186.53;;;-6.56;90.69
47761;BME280;33524;55.434;38.520;2022-12-20T06:16:45;101188.94;;;-6.72;89.96
47761;BME280;33524;55.434;38.520;2022-12-20T06:19:14;101178.19;;;-5.07;93.30
47761;BME280;33524;55.434;38.520;2022-12-20T06:21:49;101177.44;;;-4.75;91.05
47761;BME280;33524;55.434;38.520;2022-12-20T06:24:18;101179.28;;;-4.15;93.53
47761;BME280;33524;55.434;38.520;2022-12-20T06:26:47;101175.84;;;-4.30;86.25
47761;BME280;33524;55.434;38.520;2022-12-20T06:29:17;101168.03;;;-3.43;90.39
47761;BME280;33524;55.434;38.520;2022-12-20T06:31:48;101180.03;;;-3.30;87.78
47761;BME280;33524;55.434;38.520;2022-12-20T06:34:17;101173.41;;;-5.94;84.61
47761;BME280;33524;55.434;38.520;2022-12-20T06:36:46;101174.50;;;-5.58;88.62
47761;BME280;33524;55.434;38.520;2022-12-20T06:39:18;101170.72;;;-6.12;85.86
47761;BME280;33524;55.434;38.520;2022-12-20T06:41:46;101180.09;;;-6.98;85.42
47761;BME280;33524;55.434;38.520;2022-12-20T06:44:15;101155.84;;;-7.31;86.99
47761;BME280;33524;55.434;38.520;2022-12-20T06:46:43;101155.03;;;-7.27;87.54
47761;BME280;33524;55.434;38.520;2022-12-20T06:49:13;101159.19;;;-7.35;87.49
47761;BME280;33524;55.434;38.520;2022-12-20T06:51:41;101157.47;;;-7.36;87.59
47761;BME280;33524;55.434;38.520;2022-12-20T06:54:10;101148.03;;;-7.42;87.28
47761;BME280;33524;55.434;38.520;2022-12-20T06:56:39;101148.91;;;-7.38;87.12
47761;BME280;33524;55.434;38.520;2022-12-20T06:59:08;101154.72;;;-7.48;86.84
47761;BME280;33524;55.434;38.520;2022-12-20T07:01:38;101148.19;;;-7.28;88.24
47761;BME280;33524;55.434;38.520;2022-12-20T07:04:07;101147.75;;;-6.93;87.80
47761;BME280;33524;55.434;38.520;2022-12-20T07:06:35;101143.28;;;-7.11;87.95
47761;BME280;33524;55.434;38.520;2022-12-20T07:09:03;101133.94;;;-7.07;86.73
47761;BME280;33524;55.434;38.520;2022-12-20T07:11:31;101137.25;;;-7.18;85.47
47761;BME280;33524;55.434;38.520;2022-12-20T07:13:59;101147.19;;;-6.66;88.29
47761;BME280;33524;55.434;38.520;2022-12-20T07:16:27;101147.81;;;-6.90;85.17
47761;BME280;33524;55.434;38.520;2022-12-20T07:18:55;101149.44;;;-6.95;86.00
47761;BME280;33524;55.434;38.520;2022-12-20T07:21:23;101131.31;;;-7.14;84.55
47761;BME280;33524;55.434;38.520;2022-12-20T07:23:53;101128.84;;;-7.07;85.54
47761;BME280;33524;55.434;38.520;2022-12-20T07:26:22;101131.31;;;-7.17;83.51
47761;BME280;33524;55.434;38.520;2022-12-20T07:28:49;101135.63;;;-7.13;83.53
47761;BME280;33524;55.434;38.520;2022-12-20T07:31:17;101125.41;;;-7.10;84.06
47761;BME280;33524;55.434;38.520;2022-12-20T07:33:45;101123.00;;;-6.96;84.59
47761;BME280;33524;55.434;38.520;2022-12-20T07:36:14;101123.78;;;-7.01;83.34
47761;BME280;33524;55.434;38.520;2022-12-20T07:38:45;101116.25;;;-6.89;82.65
47761;BME280;33524;55.434;38.520;2022-12-20T07:41:15;101115.31;;;-7.00;81.00
47761;BME280;33524;55.434;38.520;2022-12-20T07:43:44;101105.13;;;-6.94;81.42
47761;BME280;33524;55.434;38.520;2022-12-20T07:46:13;101094.13;;;-6.85;82.37
47761;BME280;33524;55.434;38.520;2022-12-20T07:48:42;101094.03;;;-6.95;81.01
47761;BME280;33524;55.434;38.520;2022-12-20T07:51:36;101087.22;;;-6.96;79.71
47761;BME280;33524;55.434;38.520;2022-12-20T07:54:51;101094.87;;;-6.97;80.13
47761;BME280;33524;55.434;38.520;2022-12-20T07:57:02;101088.69;;;-6.27;78.70
47761;BME280;33524;55.434;38.520;2022-12-20T07:59:42;101072.97;;;-6.71;78.36
47761;BME280;33524;55.434;38.520;2022-12-20T08:02:16;101055.06;;;-6.71;78.15
47761;BME280;33524;55.434;38.520;2022-12-20T08:04:53;101046.59;;;-6.63;78.37
47761;BME280;33524;55.434;38.520;2022-12-20T08:07:23;101047.44;;;-6.64;79.46
47761;BME280;33524;55.434;38.520;2022-12-20T08:09:51;101036.38;;;-6.63;79.83
47761;BME280;33524;55.434;38.520;2022-12-20T08:12:23;101021.97;;;-6.47;78.37
47761;BME280;33524;55.434;38.520;2022-12-20T08:14:52;101020.28;;;-6.48;79.28
47761;BME280;33524;55.434;38.520;2022-12-20T08:17:23;101016.03;;;-6.46;79.01
47761;BME280;33524;55.434;38.520;2022-12-20T08:19:51;101008.28;;;-6.51;78.30
47761;BME280;33524;55.434;38.520;2022-12-20T08:22:19;101000.56;;;-6.60;77.15
47761;BME280;33524;55.434;38.520;2022-12-20T08:24:47;100995.63;;;-6.33;76.89
47761;BME280;33524;55.434;38.520;2022-12-20T08:27:15;100985.69;;;-5.68;83.88
47761;BME280;33524;55.434;38.520;2022-12-20T08:29:43;100987.28;;;-5.93;77.17
47761;BME280;33524;55.434;38.520;2022-12-20T08:32:11;100982.28;;;-5.61;77.53
47761;BME280;33524;55.434;38.520;2022-12-20T08:34:40;100977.09;;;-5.78;81.27
47761;BME280;33524;55.434;38.520;2022-12-20T08:37:09;100958.19;;;-6.12;76.98
47761;BME280;33524;55.434;38.520;2022-12-20T08:39:42;100971.91;;;-6.01;76.84
47761;BME280;33524;55.434;38.520;2022-12-20T08:42:11;100971.06;;;-5.83;77.39
47761;BME280;33524;55.434;38.520;2022-12-20T08:44:39;100968.53;;;-5.81;77.40
47761;BME280;33524;55.434;38.520;2022-12-20T08:47:06;100960.03;;;-5.67;77.13
47761;BME280;33524;55.434;38.520;2022-12-20T08:49:35;100953.19;;;-5.69;77.11
47761;BME280;33524;55.434;38.520;2022-12-20T08:52:08;100957.50;;;-5.60;78.59
47761;BME280;33524;55.434;38.520;2022-12-20T08:54:36;100950.69;;;-5.57;77.91
47761;BME280;33524;55.434;38.520;2022-12-20T08:57:04;100942.19;;;-5.11;76.06
47761;BME280;33524;55.434;38.520;2022-12-20T08:59:32;100930.25;;;-5.06;75.31
47761;BME280;33524;55.434;38.520;2022-12-20T09:02:00;100926.78;;;-4.60;74.76
47761;BME280;33524;55.434;38.520;2022-12-20T09:04:28;100919.13;;;-4.71;74.93
47761;BME280;33524;55.434;38.520;2022-12-20T09:06:56;100897.69;;;-4.59;72.95
47761;BME280;33524;55.434;38.520;2022-12-20T09:09:24;100905.44;;;-4.92;70.14
47761;BME280;33524;55.434;38.520;2022-12-20T09:11:52;100888.31;;;-4.79;71.17
47761;BME280;33524;55.434;38.520;2022-12-20T09:14:20;100882.25;;;-4.39;72.84
47761;BME280;33524;55.434;38.520;2022-12-20T09:16:48;100873.44;;;-3.86;71.60
47761;BME280;33524;55.434;38.520;2022-12-20T09:19:16;100853.53;;;-3.53;71.99
47761;BME280;33524;55.434;38.520;2022-12-20T09:21:44;100860.81;;;-3.02;65.82
47761;BME280;33524;55.434;38.520;2022-12-20T09:24:12;100848.62;;;-2.84;70.67
47761;BME280;33524;55.434;38.520;2022-12-20T09:26:40;100850.09;;;-2.58;62.03
47761;BME280;33524;55.434;38.520;2022-12-20T09:29:11;100844.28;;;-2.77;63.57
47761;BME280;33524;55.434;38.520;2022-12-20T09:31:39;100841.84;;;-2.92;66.46
47761;BME280;33524;55.434;38.520;2022-12-20T09:34:08;100845.12;;;-2.76;67.65
47761;BME280;33524;55.434;38.520;2022-12-20T09:36:36;100840.00;;;-2.78;66.28
47761;BME280;33524;55.434;38.520;2022-12-20T09:39:05;100837.59;;;-2.98;66.75
47761;BME280;33524;55.434;38.520;2022-12-20T09:41:37;100817.78;;;-2.85;67.79
47761;BME280;33524;55.434;38.520;2022-12-20T09:44:27;100806.63;;;-2.14;63.71
47761;BME280;33524;55.434;38.520;2022-12-20T09:47:08;100796.84;;;-1.92;62.50
47761;BME280;33524;55.434;38.520;2022-12-20T09:49:44;100779.00;;;-2.06;63.49
47761;BME280;33524;55.434;38.520;2022-12-20T10:00:58;100761.28;;;-1.72;57.22
47761;BME280;33524;55.434;38.520;2022-12-20T10:03:42;100769.41;;;-1.96;59.33
47761;BME280;33524;55.434;38.520;2022-12-20T10:09:26;100759.19;;;-2.65;59.05
47761;BME280;33524;55.434;38.520;2022-12-20T10:23:41;100733.16;;;-2.46;62.37
47761;BME280;33524;55.434;38.520;2022-12-20T10:26:12;100731.41;;;-2.41;59.59
47761;BME280;33524;55.434;38.520;2022-12-20T10:28:40;100731.47;;;-2.46;63.43
47761;BME280;33524;55.434;38.520;2022-12-20T10:31:18;100732.22;;;-2.39;61.31
47761;BME280;33524;55.434;38.520;2022-12-20T10:33:46;100729.16;;;-2.05;59.72
47761;BME280;33524;55.434;38.520;2022-12-20T10:36:24;100723.03;;;-1.98;57.16
47761;BME280;33524;55.434;38.520;2022-12-20T10:38:58;100718.47;;;-1.80;61.07
47761;BME280;33524;55.434;38.520;2022-12-20T10:41:54;100720.31;;;-1.39;57.71
47761;BME280;33524;55.434;38.520;2022-12-20T10:44:27;100707.13;;;-1.70;58.33
47761;BME280;33524;55.434;38.520;2022-12-20T10:46:59;100699.81;;;-1.96;57.65
47761;BME280;33524;55.434;38.520;2022-12-20T10:49:37;100692.31;;;-2.71;55.93
47761;BME280;33524;55.434;38.520;2022-12-20T10:54:40;100679.16;;;-2.52;58.80
47761;BME280;33524;55.434;38.520;2022-12-20T10:59:44;100675.31;;;-2.82;59.77
47761;BME280;33524;55.434;38.520;2022-12-20T11:02:37;100672.16;;;-3.06;59.91
47761;BME280;33524;55.434;38.520;2022-12-20T11:07:56;100674.28;;;-3.40;59.03
47761;BME280;33524;55.434;38.520;2022-12-20T11:10:45;100673.44;;;-3.41;60.30
47761;BME280;33524;55.434;38.520;2022-12-20T11:13:25;100658.06;;;-3.49;58.85
47761;BME280;33524;55.434;38.520;2022-12-20T11:15:55;100649.94;;;-3.95;60.83
47761;BME280;33524;55.434;38.520;2022-12-20T11:18:42;100649.19;;;-4.10;60.47
47761;BME280;33524;55.434;38.520;2022-12-20T11:21:36;100641.69;;;-4.30;61.00
47761;BME280;33524;55.434;38.520;2022-12-20T11:35:46;100627.28;;;-4.57;62.01
47761;BME280;33524;55.434;38.520;2022-12-20T11:43:46;100607.25;;;-5.41;65.14
47761;BME280;33524;55.434;38.520;2022-12-20T11:54:47;100586.94;;;-6.35;67.73
47761;BME280;33524;55.434;38.520;2022-12-20T11:57:22;100586.97;;;-6.61;68.78
47761;BME280;33524;55.434;38.520;2022-12-20T11:59:59;100570.75;;;-6.53;71.07
47761;BME280;33524;55.434;38.520;2022-12-20T12:02:47;100571.59;;;-6.34;71.19
47761;BME280;33524;55.434;38.520;2022-12-20T12:05:45;100575.00;;;-6.50;69.70
47761;BME280;33524;55.434;38.520;2022-12-20T12:08:29;100579.25;;;-6.66;70.31
47761;BME280;33524;55.434;38.520;2022-12-20T12:11:23;100578.41;;;-6.88;71.34
47761;BME280;33524;55.434;38.520;2022-12-20T12:14:43;100578.41;;;-6.73;77.69
47761;BME280;33524;55.434;38.520;2022-12-20T12:17:30;100581.78;;;-6.98;72.72
47761;BME280;33524;55.434;38.520;2022-12-20T12:20:17;100566.50;;;-6.67;76.28
47761;BME280;33524;55.434;38.520;2022-12-20T12:22:48;100578.22;;;-5.59;80.04
47761;BME280;33524;55.434;38.520;2022-12-20T12:25:18;100575.81;;;-4.37;85.04
47761;BME280;33524;55.434;38.520;2022-12-20T12:27:46;100571.88;;;-3.11;82.50
47761;BME280;33524;55.434;38.520;2022-12-20T12:30:15;100586.97;;;-4.39;77.07
47761;BME280;33524;55.434;38.520;2022-12-20T12:33:04;100575.22;;;-3.74;84.04
47761;BME280;33524;55.434;38.520;2022-12-20T12:43:52;100575.31;;;-3.12;83.79
47761;BME280;33524;55.434;38.520;2022-12-20T12:46:29;100577.09;;;-3.91;78.30
47761;BME280;33524;55.434;38.520;2022-12-20T12:49:03;100575.84;;;-4.43;84.37
47761;BME280;33524;55.434;38.520;2022-12-20T12:51:35;100557.72;;;-3.46;84.42
47761;BME280;33524;55.434;38.520;2022-12-20T12:54:24;100558.84;;;-3.67;81.28
47761;BME280;33524;55.434;38.520;2022-12-20T12:57:02;100558.09;;;-3.76;84.98
47761;BME280;33524;55.434;38.520;2022-12-20T13:04:51;100562.31;;;-3.69;84.76
47761;BME280;33524;55.434;38.520;2022-12-20T13:07:39;100568.50;;;-4.91;77.82
47761;BME280;33524;55.434;38.520;2022-12-20T13:20:34;100559.59;;;-6.04;76.43
47761;BME280;33524;55.434;38.520;2022-12-20T13:25:47;100567.31;;;-6.27;81.31
47761;BME280;33524;55.434;38.520;2022-12-20T13:30:45;100571.56;;;-6.37;80.73
47761;BME280;33524;55.434;38.520;2022-12-20T13:33:38;100563.91;;;-6.26;83.42
47761;BME280;33524;55.434;38.520;2022-12-20T13:38:55;100560.50;;;-6.60;82.04
47761;BME280;33524;55.434;38.520;2022-12-20T13:41:39;100567.28;;;-6.96;80.08
47761;BME280;33524;55.434;38.520;2022-12-20T13:44:19;100561.34;;;-6.80;84.70
47761;BME280;33524;55.434;38.520;2022-12-20T13:47:02;100544.97;;;-7.56;80.07
47761;BME280;33524;55.434;38.520;2022-12-20T13:49:39;100542.37;;;-7.65;81.24
47761;BME280;33524;55.434;38.520;2022-12-20T13:54:49;100549.09;;;-7.79;80.81
47761;BME280;33524;55.434;38.520;2022-12-20T13:57:28;100553.66;;;-6.87;85.00
47761;BME280;33524;55.434;38.520;2022-12-20T14:00:00;100554.31;;;-7.55;80.69
47761;BME280;33524;55.434;38.520;2022-12-20T14:02:39;100550.84;;;-7.69;81.13
47761;BME280;33524;55.434;38.520;2022-12-20T14:05:30;100557.69;;;-7.63;83.41
47761;BME280;33524;55.434;38.520;2022-12-20T14:08:13;100550.22;;;-7.05;85.95
47761;BME280;33524;55.434;38.520;2022-12-20T14:10:42;100557.94;;;-6.60;87.96
47761;BME280;33524;55.434;38.520;2022-12-20T14:13:37;100546.00;;;-6.43;85.99
47761;BME280;33524;55.434;38.520;2022-12-20T14:16:15;100549.34;;;-5.98;91.04
47761;BME280;33524;55.434;38.520;2022-12-20T14:19:01;100543.88;;;-5.18;89.07
47761;BME280;33524;55.434;38.520;2022-12-20T14:21:30;100551.12;;;-4.55;88.29
47761;BME280;33524;55.434;38.520;2022-12-20T14:24:02;100554.44;;;-4.39;83.78
47761;BME280;33524;55.434;38.520;2022-12-20T14:26:41;100552.63;;;-3.47;88.48
47761;BME280;33524;55.434;38.520;2022-12-20T14:29:15;100541.84;;;-3.10;86.25
47761;BME280;33524;55.434;38.520;2022-12-20T14:31:48;100552.19;;;-2.56;83.89
47761;BME280;33524;55.434;38.520;2022-12-20T14:34:28;100550.91;;;-2.83;84.44
47761;BME280;33524;55.434;38.520;2022-12-20T14:37:32;100540.91;;;-3.03;85.28
47761;BME280;33524;55.434;38.520;2022-12-20T14:42:36;100534.94;;;-3.73;77.92
47761;BME280;33524;55.434;38.520;2022-12-20T14:45:17;100555.69;;;-4.89;79.76
47761;BME280;33524;55.434;38.520;2022-12-20T14:48:05;100536.38;;;-5.55;78.79
47761;BME280;33524;55.434;38.520;2022-12-20T14:50:39;100549.28;;;-5.76;80.34
47761;BME280;33524;55.434;38.520;2022-12-20T14:53:17;100548.16;;;-5.18;85.37
47761;BME280;33524;55.434;38.520;2022-12-20T14:55:47;100547.88;;;-3.82;88.51
47761;BME280;33524;55.434;38.520;2022-12-20T14:58:29;100545.69;;;-3.40;85.77